createdAt,value
2018-08-12T00:00:10.321Z,94.54
2018-08-12T00:02:39.007Z,94.58
2018-08-12T00:05:07.671Z,94.81
2018-08-12T00:07:36.319Z,94.93
2018-08-12T00:10:07.391Z,94.95
2018-08-12T00:12:36.247Z,94.63
2018-08-12T00:15:05.642Z,94.62
2018-08-12T00:17:34.368Z,94.51
2018-08-12T00:20:03.129Z,94.41
2018-08-12T00:22:31.850Z,94.34
2018-08-12T00:25:00.571Z,94.06
2018-08-12T00:27:29.278Z,94.01
2018-08-12T00:29:57.976Z,93.97
2018-08-12T00:32:26.631Z,94.06
2018-08-12T00:34:55.333Z,94.17
2018-08-12T00:37:23.997Z,94.32
2018-08-12T00:39:52.684Z,94.66
2018-08-12T00:42:21.352Z,94.59
2018-08-12T00:44:50.070Z,94.61
2018-08-12T00:47:21.599Z,94.84
2018-08-12T00:49:50.283Z,94.75
2018-08-12T00:52:18.959Z,94.70
2018-08-12T00:54:47.644Z,94.99
2018-08-12T00:57:16.403Z,94.87
2018-08-12T00:59:45.075Z,95.04
2018-08-12T01:02:13.719Z,95.21
2018-08-12T01:04:42.414Z,95.54
2018-08-12T01:07:11.111Z,95.67
2018-08-12T01:09:39.865Z,95.62
2018-08-12T01:12:08.541Z,95.72
2018-08-12T01:14:37.188Z,95.74
2018-08-12T01:17:06.079Z,95.65
2018-08-12T01:19:34.742Z,95.77
2018-08-12T01:22:03.492Z,95.43
2018-08-12T01:24:32.204Z,95.70
2018-08-12T01:27:00.853Z,95.69
2018-08-12T01:29:29.556Z,95.78
2018-08-12T01:31:58.247Z,95.72
2018-08-12T01:34:26.937Z,95.71
2018-08-12T01:36:55.633Z,95.89
2018-08-12T01:39:24.327Z,95.85
2018-08-12T01:41:52.955Z,96.21
2018-08-12T01:44:21.618Z,96.79
2018-08-12T01:46:50.258Z,96.87
2018-08-12T01:49:18.918Z,97.19
2018-08-12T01:51:47.567Z,97.48
2018-08-12T01:54:16.231Z,97.80
2018-08-12T01:56:44.892Z,98.05
2018-08-12T01:59:13.568Z,97.90
2018-08-12T02:01:42.207Z,97.50
2018-08-12T02:04:10.879Z,97.19
2018-08-12T02:06:39.556Z,96.96
2018-08-12T02:09:10.198Z,97.26
2018-08-12T02:11:38.895Z,97.13
2018-08-12T02:14:08.118Z,97.30
2018-08-12T02:16:37.089Z,97.62
2018-08-12T02:19:06.065Z,97.66
2018-08-12T02:21:34.974Z,97.50
2018-08-12T02:24:03.643Z,97.55
2018-08-12T02:26:32.319Z,97.60
2018-08-12T02:29:00.978Z,97.81
2018-08-12T02:31:29.690Z,97.96
2018-08-12T02:33:58.346Z,98.22
2018-08-12T02:36:27.031Z,98.37
2018-08-12T02:38:55.711Z,98.31
2018-08-12T02:41:24.399Z,98.68
2018-08-12T02:43:53.052Z,98.62
2018-08-12T02:46:21.735Z,98.62
2018-08-12T02:48:50.406Z,98.27
2018-08-12T02:51:19.077Z,98.37
2018-08-12T02:53:47.763Z,98.68
2018-08-12T02:56:16.459Z,98.84
2018-08-12T02:58:45.139Z,98.89
2018-08-12T03:01:13.811Z,98.88
2018-08-12T03:03:42.517Z,98.88
2018-08-12T03:06:11.192Z,99.05
2018-08-12T03:08:39.869Z,98.81
2018-08-12T03:11:08.549Z,98.92
2018-08-12T03:13:37.237Z,99.08
2018-08-12T03:16:06.023Z,98.76
2018-08-12T03:18:34.716Z,98.65
2018-08-12T03:21:03.605Z,98.66
2018-08-12T03:23:32.583Z,98.65
2018-08-12T03:26:01.278Z,98.75
2018-08-12T03:28:29.954Z,98.86
2018-08-12T03:30:58.923Z,98.88
2018-08-12T03:33:27.571Z,98.64
2018-08-12T03:35:56.226Z,98.82
2018-08-12T03:38:24.931Z,98.87
2018-08-12T03:40:53.603Z,98.89
2018-08-12T03:43:22.267Z,98.72
2018-08-12T03:45:50.971Z,98.67
2018-08-12T03:48:19.615Z,98.50
2018-08-12T03:50:48.283Z,98.19
2018-08-12T03:53:16.923Z,97.95
2018-08-12T03:55:45.640Z,98.06
2018-08-12T03:58:14.296Z,97.98
2018-08-12T04:00:42.967Z,98.28
2018-08-12T04:03:11.632Z,98.34
2018-08-12T04:05:40.323Z,98.55
2018-08-12T04:08:08.975Z,98.69
2018-08-12T04:10:37.654Z,98.66
2018-08-12T04:13:06.367Z,98.80
2018-08-12T04:15:35.028Z,98.63
2018-08-12T04:18:03.802Z,98.68
2018-08-12T04:20:32.467Z,98.72
2018-08-12T04:23:01.151Z,98.87
2018-08-12T04:25:29.835Z,98.88
2018-08-12T04:27:58.508Z,98.66
2018-08-12T04:30:27.236Z,98.71
2018-08-12T04:32:55.914Z,98.53
2018-08-12T04:35:24.582Z,98.21
2018-08-12T04:37:53.258Z,98.30
2018-08-12T04:40:21.934Z,97.97
2018-08-12T04:42:50.618Z,97.93
2018-08-12T04:45:19.329Z,97.74
2018-08-12T04:47:48.012Z,98.00
2018-08-12T04:50:16.697Z,97.80
2018-08-12T04:52:45.381Z,97.33
2018-08-12T04:55:14.073Z,97.63
2018-08-12T04:57:42.750Z,97.44
2018-08-12T05:00:11.521Z,97.43
2018-08-12T05:02:40.296Z,97.59
2018-08-12T05:05:09.405Z,97.51
2018-08-12T05:07:38.121Z,97.11
2018-08-12T05:10:07.364Z,96.82
2018-08-12T05:12:36.075Z,96.76
2018-08-12T05:15:05.851Z,96.34
2018-08-12T05:17:34.560Z,94.89
2018-08-12T05:20:03.278Z,93.31
2018-08-12T05:22:32.006Z,92.98
2018-08-12T05:25:00.655Z,92.10
2018-08-12T05:27:29.344Z,91.51
2018-08-12T05:29:57.987Z,91.40
2018-08-12T05:32:26.664Z,90.75
2018-08-12T05:34:55.387Z,90.46
2018-08-12T05:37:24.037Z,90.43
2018-08-12T05:39:52.696Z,90.07
2018-08-12T05:42:21.417Z,90.21
2018-08-12T05:44:50.115Z,90.46
2018-08-12T05:47:18.763Z,90.67
2018-08-12T05:49:47.409Z,90.67
2018-08-12T05:52:16.075Z,90.93
2018-08-12T05:54:44.760Z,91.31
2018-08-12T05:57:13.463Z,90.98
2018-08-12T05:59:42.102Z,90.66
2018-08-12T06:02:10.834Z,90.46
2018-08-12T06:04:39.499Z,89.29
2018-08-12T06:07:08.147Z,87.88
2018-08-12T06:09:36.799Z,87.78
2018-08-12T06:12:05.508Z,86.64
2018-08-12T06:14:34.172Z,86.31
2018-08-12T06:17:02.906Z,86.36
2018-08-12T06:19:31.583Z,85.37
2018-08-12T06:22:00.264Z,85.45
2018-08-12T06:24:28.937Z,85.23
2018-08-12T06:26:57.614Z,85.77
2018-08-12T06:29:26.311Z,84.95
2018-08-12T06:31:54.972Z,84.99
2018-08-12T06:34:23.701Z,86.07
2018-08-12T06:36:52.367Z,85.44
2018-08-12T06:39:21.154Z,85.53
2018-08-12T06:41:49.800Z,85.24
2018-08-12T06:44:18.485Z,83.21
2018-08-12T06:46:47.162Z,84.44
2018-08-12T06:49:15.854Z,83.61
2018-08-12T06:51:44.577Z,84.06
2018-08-12T06:54:13.251Z,84.13
2018-08-12T06:59:38.444Z,83.93
2018-08-12T07:02:21.108Z,84.76
2018-08-12T07:04:49.804Z,84.27
2018-08-12T07:07:18.464Z,82.05
2018-08-12T07:09:47.156Z,81.68
2018-08-12T07:12:15.833Z,80.39
2018-08-12T07:14:44.547Z,80.93
2018-08-12T07:17:13.219Z,79.99
2018-08-12T07:19:41.893Z,81.89
2018-08-12T07:22:10.580Z,80.26
2018-08-12T07:24:39.347Z,79.41
2018-08-12T07:27:08.089Z,76.65
2018-08-12T07:29:36.791Z,75.68
2018-08-12T07:32:05.427Z,76.04
2018-08-12T07:34:34.126Z,74.74
2018-08-12T07:37:02.836Z,75.75
2018-08-12T07:39:31.575Z,76.66
2018-08-12T07:42:00.283Z,76.50
2018-08-12T07:44:28.983Z,73.53
2018-08-12T07:46:57.656Z,72.96
2018-08-12T07:49:26.326Z,72.48
2018-08-12T07:51:54.996Z,68.44
2018-08-12T07:54:23.714Z,69.57
2018-08-12T07:56:52.400Z,69.26
2018-08-12T07:59:21.106Z,68.27
2018-08-12T08:01:49.790Z,67.35
2018-08-12T08:04:18.517Z,64.16
2018-08-12T08:06:47.255Z,66.36
2018-08-12T08:09:15.929Z,64.67
2018-08-12T08:11:44.657Z,65.45
2018-08-12T08:14:13.369Z,64.73
2018-08-12T08:16:42.040Z,65.32
2018-08-12T08:19:10.818Z,65.81
2018-08-12T08:21:39.528Z,64.12
2018-08-12T08:24:08.235Z,61.48
2018-08-12T08:26:36.944Z,63.37
2018-08-12T08:29:06.026Z,64.07
2018-08-12T08:31:34.745Z,61.78
2018-08-12T08:34:03.428Z,62.12
2018-08-12T08:36:32.116Z,58.87
2018-08-12T08:39:00.850Z,59.30
2018-08-12T08:41:29.505Z,59.36
2018-08-12T08:43:58.227Z,59.36
2018-08-12T08:46:26.965Z,57.98
2018-08-12T08:48:55.641Z,59.87
2018-08-12T08:51:24.307Z,61.72
2018-08-12T08:53:52.966Z,58.69
2018-08-12T08:56:21.703Z,61.92
2018-08-12T08:58:50.395Z,61.70
2018-08-12T09:01:19.067Z,62.23
2018-08-12T09:03:47.756Z,60.31
2018-08-12T09:06:16.437Z,60.45
2018-08-12T09:08:45.340Z,56.93
2018-08-12T09:11:13.823Z,58.38
2018-08-12T09:13:42.490Z,57.33
2018-08-12T09:16:11.196Z,58.97
2018-08-12T09:18:39.857Z,59.35
2018-08-12T09:21:08.527Z,58.69
2018-08-12T09:23:37.222Z,58.05
2018-08-12T09:26:05.975Z,57.34
2018-08-12T09:28:34.768Z,58.54
2018-08-12T09:31:03.518Z,56.21
2018-08-12T09:33:32.217Z,58.15
2018-08-12T09:36:00.899Z,56.99
2018-08-12T09:38:29.553Z,57.39
2018-08-12T09:40:58.224Z,57.98
2018-08-12T09:43:26.880Z,57.84
2018-08-12T09:45:55.593Z,57.61
2018-08-12T09:48:24.265Z,56.78
2018-08-12T09:50:52.943Z,58.50
2018-08-12T09:53:21.631Z,56.39
2018-08-12T09:55:50.315Z,56.48
2018-08-12T09:58:18.990Z,53.45
2018-08-12T10:00:47.722Z,53.62
2018-08-12T10:03:16.419Z,56.37
2018-08-12T10:05:45.103Z,57.50
2018-08-12T10:08:13.760Z,56.28
2018-08-12T10:10:42.443Z,55.33
2018-08-12T10:13:11.126Z,53.76
2018-08-12T10:15:39.974Z,55.55
2018-08-12T10:18:08.769Z,55.83
2018-08-12T10:20:37.497Z,56.89
2018-08-12T10:23:06.235Z,56.93
2018-08-12T10:25:34.948Z,54.38
2018-08-12T10:28:03.651Z,54.50
2018-08-12T10:30:32.326Z,55.78
2018-08-12T10:33:01.018Z,53.82
2018-08-12T10:35:29.697Z,54.66
2018-08-12T10:37:58.493Z,53.68
2018-08-12T10:40:27.153Z,54.30
2018-08-12T10:42:55.839Z,54.44
2018-08-12T10:45:24.513Z,57.20
2018-08-12T10:47:53.198Z,54.44
2018-08-12T10:50:21.886Z,53.83
2018-08-12T10:52:51.000Z,51.68
2018-08-12T10:55:21.422Z,55.77
2018-08-12T10:57:50.257Z,52.55
2018-08-12T11:00:22.541Z,50.66
2018-08-12T11:02:51.329Z,52.22
2018-08-12T11:05:20.074Z,52.89
2018-08-12T11:07:51.419Z,52.47
2018-08-12T11:10:20.304Z,51.38
2018-08-12T11:12:49.052Z,46.37
2018-08-12T11:15:17.729Z,44.34
2018-08-12T11:17:46.456Z,47.56
2018-08-12T11:20:15.139Z,45.59
2018-08-12T11:22:43.957Z,43.82
2018-08-12T11:25:13.195Z,43.97
2018-08-12T11:27:41.947Z,43.28
2018-08-12T11:30:13.035Z,42.76
2018-08-12T11:32:41.863Z,42.78
2018-08-12T11:35:12.292Z,40.44
2018-08-12T11:37:41.825Z,41.94
2018-08-12T11:40:11.547Z,39.92
2018-08-12T11:42:40.297Z,39.95
2018-08-12T11:45:15.408Z,42.50
2018-08-12T11:47:44.613Z,42.92
2018-08-12T11:50:13.979Z,42.86
2018-08-12T11:52:43.507Z,40.16
2018-08-12T11:55:13.599Z,41.42
2018-08-12T11:57:42.415Z,43.77
2018-08-12T12:00:14.970Z,46.13
2018-08-12T12:02:44.259Z,45.68
2018-08-12T12:05:14.358Z,44.35
2018-08-12T12:07:43.368Z,43.60
2018-08-12T12:10:15.392Z,41.64
2018-08-12T12:12:45.414Z,41.07
2018-08-12T12:15:15.004Z,41.85
2018-08-12T12:17:44.566Z,41.75
2018-08-12T12:20:14.359Z,42.71
2018-08-12T12:22:43.807Z,42.65
2018-08-12T12:25:14.747Z,42.54
2018-08-12T12:27:43.447Z,43.04
2018-08-12T12:30:16.967Z,42.15
2018-08-12T12:32:46.395Z,40.90
2018-08-12T12:35:15.118Z,39.10
2018-08-12T12:37:44.019Z,39.84
2018-08-12T12:40:14.544Z,40.41
2018-08-12T12:42:43.636Z,40.60
2018-08-12T12:45:13.295Z,40.60
2018-08-12T12:47:42.640Z,41.85
2018-08-12T12:50:18.838Z,41.37
2018-08-12T12:52:48.419Z,41.31
2018-08-12T12:55:17.613Z,40.27
2018-08-12T12:57:46.395Z,43.06
2018-08-12T13:00:16.549Z,43.05
2018-08-12T13:02:45.260Z,43.62
2018-08-12T13:05:15.493Z,43.85
2018-08-12T13:07:45.268Z,43.89
2018-08-12T13:10:14.889Z,43.42
2018-08-12T13:12:43.898Z,44.19
2018-08-12T13:15:13.490Z,43.68
2018-08-12T13:17:42.210Z,43.47
2018-08-12T13:20:13.334Z,42.64
2018-08-12T13:22:42.608Z,41.90
2018-08-12T13:25:13.744Z,42.95
2018-08-12T13:27:43.282Z,41.76
2018-08-12T13:30:13.108Z,42.17
2018-08-12T13:32:43.051Z,42.99
2018-08-12T13:35:11.803Z,43.47
2018-08-12T13:37:40.557Z,43.39
2018-08-12T13:40:13.040Z,41.48
2018-08-12T13:42:42.482Z,42.79
2018-08-12T13:45:12.285Z,43.61
2018-08-12T13:47:42.438Z,41.88
2018-08-12T13:50:13.134Z,40.31
2018-08-12T13:52:41.864Z,42.39
2018-08-12T13:55:10.645Z,43.04
2018-08-12T13:57:39.370Z,42.76
2018-08-12T14:00:17.324Z,42.96
2018-08-12T14:02:46.085Z,43.52
2018-08-12T14:05:16.280Z,43.95
2018-08-12T14:07:45.487Z,42.74
2018-08-12T14:10:14.181Z,42.83
2018-08-12T14:12:42.880Z,43.14
2018-08-12T14:15:14.074Z,43.72
2018-08-12T14:17:43.771Z,42.81
2018-08-12T14:20:14.096Z,44.35
2018-08-12T14:22:43.132Z,43.94
2018-08-12T14:25:12.111Z,43.18
2018-08-12T14:27:42.508Z,42.83
2018-08-12T14:30:14.015Z,42.32
2018-08-12T14:32:43.387Z,41.71
2018-08-12T14:35:12.067Z,43.10
2018-08-12T14:37:41.097Z,42.50
2018-08-12T14:40:11.265Z,41.94
2018-08-12T14:42:39.988Z,42.21
2018-08-12T14:45:10.264Z,42.59
2018-08-12T14:47:39.506Z,41.85
2018-08-12T14:50:10.538Z,42.02
2018-08-12T14:52:39.457Z,42.08
2018-08-12T14:55:09.175Z,42.56
2018-08-12T14:57:37.893Z,42.14
2018-08-12T15:00:08.183Z,42.82
2018-08-12T15:02:36.863Z,42.29
2018-08-12T15:05:06.097Z,43.33
2018-08-12T15:07:34.837Z,42.50
2018-08-12T15:10:03.630Z,44.11
2018-08-12T15:12:32.287Z,43.64
2018-08-12T15:15:01.017Z,43.00
2018-08-12T15:17:29.720Z,43.51
2018-08-12T15:19:58.403Z,43.59
2018-08-12T15:22:27.120Z,42.41
2018-08-12T15:24:55.776Z,43.57
2018-08-12T15:27:24.458Z,43.11
2018-08-12T15:29:53.144Z,42.66
2018-08-12T15:32:21.826Z,42.63
2018-08-12T15:34:50.851Z,43.53
2018-08-12T15:37:19.485Z,43.62
2018-08-12T15:39:48.151Z,43.17
2018-08-12T15:42:16.865Z,42.42
2018-08-12T15:44:45.533Z,40.18
2018-08-12T15:47:14.235Z,42.43
2018-08-12T15:49:42.946Z,41.75
2018-08-12T15:52:11.619Z,42.23
2018-08-12T15:54:40.286Z,43.36
2018-08-12T15:57:08.972Z,43.54
2018-08-12T15:59:37.667Z,44.16
2018-08-12T16:02:06.496Z,44.33
2018-08-12T16:04:35.228Z,44.08
2018-08-12T16:07:08.532Z,44.95
2018-08-12T16:09:37.632Z,44.79
2018-08-12T16:12:07.839Z,45.25
2018-08-12T16:14:36.592Z,45.91
2018-08-12T16:17:05.601Z,45.36
2018-08-12T16:19:34.365Z,46.62
2018-08-12T16:22:03.057Z,46.60
2018-08-12T16:24:31.706Z,47.85
2018-08-12T16:27:00.354Z,47.91
2018-08-12T16:29:29.038Z,48.29
2018-08-12T16:31:57.717Z,47.38
2018-08-12T16:34:26.404Z,48.60
2018-08-12T16:36:55.054Z,48.72
2018-08-12T16:39:23.746Z,48.70
2018-08-12T16:41:52.392Z,48.85
2018-08-12T16:44:21.083Z,49.11
2018-08-12T16:46:49.738Z,48.30
2018-08-12T16:49:18.467Z,47.18
2018-08-12T16:51:47.131Z,47.93
2018-08-12T16:54:15.794Z,49.40
2018-08-12T16:56:44.470Z,49.23
2018-08-12T16:59:13.186Z,49.41
2018-08-12T17:01:41.829Z,50.59
2018-08-12T17:04:10.616Z,50.11
2018-08-12T17:06:39.235Z,50.72
2018-08-12T17:09:10.737Z,50.86
2018-08-12T17:11:39.400Z,51.26
2018-08-12T17:14:08.852Z,52.16
2018-08-12T17:16:37.543Z,52.48
2018-08-12T17:19:06.255Z,51.37
2018-08-12T17:21:34.965Z,53.18
2018-08-12T17:24:03.631Z,52.92
2018-08-12T17:26:32.305Z,53.47
2018-08-12T17:29:00.964Z,53.52
2018-08-12T17:31:29.674Z,53.11
2018-08-12T17:33:58.399Z,53.07
2018-08-12T17:36:27.065Z,54.18
2018-08-12T17:38:55.736Z,54.10
2018-08-12T17:41:24.433Z,54.58
2018-08-12T17:43:53.095Z,55.03
2018-08-12T17:46:21.780Z,55.64
2018-08-12T17:48:50.448Z,56.74
2018-08-12T17:51:19.123Z,56.49
2018-08-12T17:53:47.767Z,56.49
2018-08-12T17:56:16.439Z,57.71
2018-08-12T17:58:45.136Z,57.55
2018-08-12T18:01:13.845Z,57.76
2018-08-12T18:03:42.539Z,57.79
2018-08-12T18:06:11.222Z,64.02
2018-08-12T18:08:39.909Z,65.91
2018-08-12T18:11:09.122Z,66.83
2018-08-12T18:13:37.761Z,65.33
2018-08-12T18:16:06.427Z,68.17
2018-08-12T18:18:35.158Z,69.27
2018-08-12T18:21:03.844Z,70.47
2018-08-12T18:23:32.512Z,71.22
2018-08-12T18:26:01.214Z,73.06
2018-08-12T18:28:29.857Z,72.57
2018-08-12T18:30:58.529Z,71.27
2018-08-12T18:33:27.200Z,67.78
2018-08-12T18:35:55.865Z,66.18
2018-08-12T18:38:24.546Z,66.14
2018-08-12T18:40:53.231Z,66.55
2018-08-12T18:43:21.953Z,66.98
2018-08-12T18:45:50.652Z,67.72
2018-08-12T18:48:19.287Z,68.86
2018-08-12T18:50:47.994Z,72.01
2018-08-12T18:53:16.642Z,75.45
2018-08-12T18:55:45.314Z,78.44
2018-08-12T18:58:14.014Z,77.90
2018-08-12T19:00:42.697Z,76.54
2018-08-12T19:03:11.352Z,75.76
2018-08-12T19:05:40.063Z,74.33
2018-08-12T19:08:08.712Z,75.92
2018-08-12T19:10:37.402Z,76.15
2018-08-12T19:13:06.137Z,75.05
2018-08-12T19:15:34.804Z,75.25
2018-08-12T19:18:03.554Z,74.30
2018-08-12T19:20:32.207Z,76.61
2018-08-12T19:23:00.945Z,78.04
2018-08-12T19:25:29.607Z,75.33
2018-08-12T19:27:58.331Z,75.72
2018-08-12T19:30:26.995Z,76.61
2018-08-12T19:32:55.671Z,75.84
2018-08-12T19:35:24.324Z,77.97
2018-08-12T19:37:53.027Z,79.38
2018-08-12T19:40:21.693Z,81.63
2018-08-12T19:42:50.393Z,82.95
2018-08-12T19:45:19.033Z,82.39
2018-08-12T19:47:47.691Z,80.71
2018-08-12T19:50:16.340Z,79.08
2018-08-12T19:52:45.004Z,76.64
2018-08-12T19:55:13.652Z,76.96
2018-08-12T19:57:42.332Z,79.99
2018-08-12T20:00:13.544Z,81.75
2018-08-12T20:02:42.888Z,80.61
2018-08-12T20:05:11.543Z,79.76
2018-08-12T20:07:40.233Z,80.79
2018-08-12T20:10:10.305Z,83.00
2018-08-12T20:12:38.983Z,84.75
2018-08-12T20:15:09.555Z,84.15
2018-08-12T20:17:38.343Z,84.42
2018-08-12T20:20:08.600Z,84.24
2018-08-12T20:22:37.317Z,84.29
2018-08-12T20:25:06.761Z,83.09
2018-08-12T20:27:35.506Z,82.82
2018-08-12T20:30:04.305Z,83.03
2018-08-12T20:32:33.042Z,85.17
2018-08-12T20:35:01.739Z,85.46
2018-08-12T20:37:30.502Z,85.82
2018-08-12T20:39:59.155Z,85.61
2018-08-12T20:42:27.840Z,84.85
2018-08-12T20:44:56.549Z,84.98
2018-08-12T20:47:25.256Z,84.63
2018-08-12T20:49:53.906Z,83.87
2018-08-12T20:52:22.621Z,83.80
2018-08-12T20:54:51.281Z,82.50
2018-08-12T20:57:19.987Z,80.85
2018-08-12T20:59:48.645Z,79.71
2018-08-12T21:02:17.358Z,78.67
2018-08-12T21:04:46.091Z,77.37
2018-08-12T21:07:14.794Z,76.57
2018-08-12T21:09:43.448Z,75.19
2018-08-12T21:12:12.277Z,75.34
2018-08-12T21:14:40.811Z,74.81
2018-08-12T21:17:09.497Z,75.10
2018-08-12T21:19:38.163Z,74.58
2018-08-12T21:22:06.868Z,74.10
2018-08-12T21:24:35.586Z,73.30
2018-08-12T21:27:04.294Z,72.81
2018-08-12T21:29:32.966Z,73.12
2018-08-12T21:32:01.647Z,72.53
2018-08-12T21:34:30.307Z,72.69
2018-08-12T21:36:58.947Z,72.71
2018-08-12T21:39:27.617Z,72.95
2018-08-12T21:41:56.244Z,72.73
2018-08-12T21:44:24.908Z,72.90
2018-08-12T21:46:53.566Z,72.76
2018-08-12T21:49:22.234Z,72.41
2018-08-12T21:51:50.894Z,72.32
2018-08-12T21:54:19.561Z,72.34
2018-08-12T21:56:48.226Z,71.62
2018-08-12T21:59:16.915Z,72.76
2018-08-12T22:01:46.265Z,73.06
2018-08-12T22:04:14.984Z,73.29
2018-08-12T22:06:43.660Z,73.67
2018-08-12T22:09:12.784Z,73.31
2018-08-12T22:11:41.786Z,72.21
2018-08-12T22:14:10.504Z,73.75
2018-08-12T22:16:39.215Z,73.97
2018-08-12T22:19:07.931Z,73.24
2018-08-12T22:21:36.583Z,72.43
2018-08-12T22:24:05.330Z,71.92
2018-08-12T22:26:33.989Z,71.60
2018-08-12T22:29:02.704Z,71.49
2018-08-12T22:31:31.350Z,70.60
2018-08-12T22:34:00.058Z,70.93
2018-08-12T22:36:28.711Z,69.74
2018-08-12T22:38:57.421Z,69.74
2018-08-12T22:41:26.112Z,69.32
2018-08-12T22:43:54.867Z,68.88
2018-08-12T22:46:23.522Z,69.63
2018-08-12T22:48:52.190Z,73.46
2018-08-12T22:51:20.863Z,75.20
2018-08-12T22:53:49.579Z,77.39
2018-08-12T22:56:18.304Z,77.99
2018-08-12T22:58:46.976Z,77.52
2018-08-12T23:01:15.720Z,78.43
2018-08-12T23:03:44.622Z,79.98
2018-08-12T23:06:13.317Z,80.79
2018-08-12T23:08:42.034Z,81.23
2018-08-12T23:11:10.691Z,81.16
2018-08-12T23:13:39.376Z,80.95
2018-08-12T23:16:21.301Z,81.30
2018-08-12T23:18:50.045Z,81.90
2018-08-12T23:21:19.539Z,84.14
2018-08-12T23:23:49.276Z,85.94
2018-08-12T23:26:19.316Z,84.93
2018-08-12T23:28:48.096Z,84.61
2018-08-12T23:31:16.846Z,84.41
2018-08-12T23:33:45.517Z,85.45
2018-08-12T23:36:14.240Z,84.82
2018-08-12T23:38:42.896Z,84.18
2018-08-12T23:41:12.264Z,84.01
2018-08-12T23:43:40.924Z,83.72
2018-08-12T23:46:10.199Z,84.62
2018-08-12T23:48:38.897Z,84.89
2018-08-12T23:51:08.118Z,84.84
2018-08-12T23:53:36.762Z,84.96
2018-08-12T23:56:05.585Z,85.93
2018-08-12T23:58:34.297Z,86.77
